sensor_id;sensor_type;location;lat;lon;timestamp;P1;durP1;ratioP1;P2;durP2;ratioP2
2305;SDS011;1161;51.922;8.896;2022-08-21T00:02:15;9.30;;;5.60;;
2305;SDS011;1161;51.922;8.896;2022-08-21T00:04:42;9.43;;;7.20;;
2305;SDS011;1161;51.922;8.896;2022-08-21T00:07:11;6.80;;;4.70;;
2305;SDS011;1161;51.922;8.896;2022-08-21T00:09:37;8.77;;;6.20;;
2305;SDS011;1161;51.922;8.896;2022-08-21T00:12:04;9.10;;;6.17;;
2305;SDS011;1161;51.922;8.896;2022-08-21T00:14:31;13.73;;;5.47;;
2305;SDS011;1161;51.922;8.896;2022-08-21T00:16:59;6.57;;;4.80;;
2305;SDS011;1161;51.922;8.896;2022-08-21T00:19:26;7.83;;;5.00;;
2305;SDS011;1161;51.922;8.896;2022-08-21T00:21:53;7.43;;;4.90;;
2305;SDS011;1161;51.922;8.896;2022-08-21T00:24:22;13.17;;;5.73;;
2305;SDS011;1161;51.922;8.896;2022-08-21T00:26:49;11.00;;;6.07;;
2305;SDS011;1161;51.922;8.896;2022-08-21T00:29:16;9.93;;;5.87;;
2305;SDS011;1161;51.922;8.896;2022-08-21T00:31:44;6.00;;;4.10;;
2305;SDS011;1161;51.922;8.896;2022-08-21T00:34:11;7.23;;;4.40;;
2305;SDS011;1161;51.922;8.896;2022-08-21T00:36:38;8.50;;;5.70;;
2305;SDS011;1161;51.922;8.896;2022-08-21T00:39:06;6.10;;;4.33;;
2305;SDS011;1161;51.922;8.896;2022-08-21T00:41:36;8.43;;;5.50;;
2305;SDS011;1161;51.922;8.896;2022-08-21T00:44:04;6.90;;;5.80;;
2305;SDS011;1161;51.922;8.896;2022-08-21T00:46:31;7.97;;;4.93;;
2305;SDS011;1161;51.922;8.896;2022-08-21T00:48:57;8.00;;;6.30;;
2305;SDS011;1161;51.922;8.896;2022-08-21T00:51:25;13.70;;;6.37;;
2305;SDS011;1161;51.922;8.896;2022-08-21T00:53:56;13.80;;;6.80;;
2305;SDS011;1161;51.922;8.896;2022-08-21T00:56:24;6.07;;;5.50;;
2305;SDS011;1161;51.922;8.896;2022-08-21T00:58:52;15.27;;;4.77;;
2305;SDS011;1161;51.922;8.896;2022-08-21T01:01:20;5.63;;;5.13;;
2305;SDS011;1161;51.922;8.896;2022-08-21T01:03:47;6.70;;;5.73;;
2305;SDS011;1161;51.922;8.896;2022-08-21T01:06:14;6.23;;;5.63;;
2305;SDS011;1161;51.922;8.896;2022-08-21T01:08:41;5.53;;;5.03;;
2305;SDS011;1161;51.922;8.896;2022-08-21T01:11:08;6.70;;;5.20;;
2305;SDS011;1161;51.922;8.896;2022-08-21T01:13:36;9.27;;;5.23;;
2305;SDS011;1161;51.922;8.896;2022-08-21T01:16:08;8.27;;;7.37;;
2305;SDS011;1161;51.922;8.896;2022-08-21T01:18:35;19.07;;;4.90;;
2305;SDS011;1161;51.922;8.896;2022-08-21T01:21:05;7.83;;;5.10;;
2305;SDS011;1161;51.922;8.896;2022-08-21T01:23:33;6.53;;;5.93;;
2305;SDS011;1161;51.922;8.896;2022-08-21T01:26:01;10.27;;;5.60;;
2305;SDS011;1161;51.922;8.896;2022-08-21T01:28:28;10.70;;;5.47;;
2305;SDS011;1161;51.922;8.896;2022-08-21T01:30:58;12.53;;;5.50;;
2305;SDS011;1161;51.922;8.896;2022-08-21T01:33:25;8.50;;;5.50;;
2305;SDS011;1161;51.922;8.896;2022-08-21T01:35:52;6.77;;;4.67;;
2305;SDS011;1161;51.922;8.896;2022-08-21T01:38:20;11.60;;;6.90;;
2305;SDS011;1161;51.922;8.896;2022-08-21T01:40:47;16.57;;;7.03;;
2305;SDS011;1161;51.922;8.896;2022-08-21T01:43:14;12.33;;;6.13;;
2305;SDS011;1161;51.922;8.896;2022-08-21T01:45:41;10.53;;;6.87;;
2305;SDS011;1161;51.922;8.896;2022-08-21T01:48:08;22.23;;;6.53;;
2305;SDS011;1161;51.922;8.896;2022-08-21T01:50:35;8.13;;;6.87;;
2305;SDS011;1161;51.922;8.896;2022-08-21T01:53:03;16.20;;;6.73;;
2305;SDS011;1161;51.922;8.896;2022-08-21T01:55:31;9.17;;;6.53;;
2305;SDS011;1161;51.922;8.896;2022-08-21T01:57:58;16.03;;;6.57;;
2305;SDS011;1161;51.922;8.896;2022-08-21T02:00:25;17.50;;;6.20;;
2305;SDS011;1161;51.922;8.896;2022-08-21T02:02:52;6.97;;;6.23;;
2305;SDS011;1161;51.922;8.896;2022-08-21T02:05:18;8.40;;;6.00;;
2305;SDS011;1161;51.922;8.896;2022-08-21T02:07:47;8.27;;;6.03;;
2305;SDS011;1161;51.922;8.896;2022-08-21T02:10:19;7.33;;;5.67;;
2305;SDS011;1161;51.922;8.896;2022-08-21T02:12:49;14.80;;;6.40;;
2305;SDS011;1161;51.922;8.896;2022-08-21T02:15:16;8.37;;;5.67;;
2305;SDS011;1161;51.922;8.896;2022-08-21T02:17:45;15.00;;;6.30;;
2305;SDS011;1161;51.922;8.896;2022-08-21T02:20:16;12.80;;;7.20;;
2305;SDS011;1161;51.922;8.896;2022-08-21T02:22:43;7.77;;;6.97;;
2305;SDS011;1161;51.922;8.896;2022-08-21T02:25:10;6.50;;;5.73;;
2305;SDS011;1161;51.922;8.896;2022-08-21T02:27:37;7.63;;;6.83;;
2305;SDS011;1161;51.922;8.896;2022-08-21T02:30:08;12.60;;;7.60;;
2305;SDS011;1161;51.922;8.896;2022-08-21T02:32:37;11.50;;;7.23;;
2305;SDS011;1161;51.922;8.896;2022-08-21T02:35:03;19.13;;;9.23;;
2305;SDS011;1161;51.922;8.896;2022-08-21T02:37:31;7.97;;;7.17;;
2305;SDS011;1161;51.922;8.896;2022-08-21T02:39:58;10.00;;;6.63;;
2305;SDS011;1161;51.922;8.896;2022-08-21T02:42:25;19.03;;;8.20;;
2305;SDS011;1161;51.922;8.896;2022-08-21T02:44:53;12.23;;;7.00;;
2305;SDS011;1161;51.922;8.896;2022-08-21T02:47:22;11.27;;;8.47;;
2305;SDS011;1161;51.922;8.896;2022-08-21T02:49:48;19.67;;;8.67;;
2305;SDS011;1161;51.922;8.896;2022-08-21T02:52:15;19.10;;;9.83;;
2305;SDS011;1161;51.922;8.896;2022-08-21T02:54:41;11.77;;;7.27;;
2305;SDS011;1161;51.922;8.896;2022-08-21T02:57:08;9.47;;;6.70;;
2305;SDS011;1161;51.922;8.896;2022-08-21T02:59:39;16.53;;;7.90;;
2305;SDS011;1161;51.922;8.896;2022-08-21T03:02:07;12.03;;;8.47;;
2305;SDS011;1161;51.922;8.896;2022-08-21T03:04:35;18.43;;;8.10;;
2305;SDS011;1161;51.922;8.896;2022-08-21T03:07:03;15.57;;;8.30;;
2305;SDS011;1161;51.922;8.896;2022-08-21T03:09:30;13.87;;;8.30;;
2305;SDS011;1161;51.922;8.896;2022-08-21T03:11:57;30.23;;;8.70;;
2305;SDS011;1161;51.922;8.896;2022-08-21T03:14:24;17.83;;;9.83;;
2305;SDS011;1161;51.922;8.896;2022-08-21T03:16:58;21.13;;;9.73;;
2305;SDS011;1161;51.922;8.896;2022-08-21T03:19:26;11.20;;;8.40;;
2305;SDS011;1161;51.922;8.896;2022-08-21T03:21:54;18.20;;;9.50;;
2305;SDS011;1161;51.922;8.896;2022-08-21T03:24:22;15.13;;;9.17;;
2305;SDS011;1161;51.922;8.896;2022-08-21T03:26:50;11.43;;;9.17;;
2305;SDS011;1161;51.922;8.896;2022-08-21T03:29:16;15.20;;;9.47;;
2305;SDS011;1161;51.922;8.896;2022-08-21T03:31:43;14.30;;;9.83;;
2305;SDS011;1161;51.922;8.896;2022-08-21T03:34:10;21.10;;;11.13;;
2305;SDS011;1161;51.922;8.896;2022-08-21T03:36:38;16.60;;;9.20;;
2305;SDS011;1161;51.922;8.896;2022-08-21T03:39:08;18.13;;;10.37;;
2305;SDS011;1161;51.922;8.896;2022-08-21T03:41:35;16.93;;;8.80;;
2305;SDS011;1161;51.922;8.896;2022-08-21T03:44:02;15.23;;;8.80;;
2305;SDS011;1161;51.922;8.896;2022-08-21T03:46:29;12.77;;;8.57;;
2305;SDS011;1161;51.922;8.896;2022-08-21T03:48:56;19.20;;;10.23;;
2305;SDS011;1161;51.922;8.896;2022-08-21T03:51:23;14.13;;;10.97;;
2305;SDS011;1161;51.922;8.896;2022-08-21T03:53:50;16.23;;;10.53;;
2305;SDS011;1161;51.922;8.896;2022-08-21T03:56:19;28.17;;;11.30;;
2305;SDS011;1161;51.922;8.896;2022-08-21T03:58:46;14.80;;;9.20;;
2305;SDS011;1161;51.922;8.896;2022-08-21T04:01:14;22.80;;;10.83;;
2305;SDS011;1161;51.922;8.896;2022-08-21T04:03:41;22.00;;;9.37;;
2305;SDS011;1161;51.922;8.896;2022-08-21T04:06:09;34.07;;;10.10;;
2305;SDS011;1161;51.922;8.896;2022-08-21T04:08:36;15.13;;;9.53;;
2305;SDS011;1161;51.922;8.896;2022-08-21T04:11:07;15.87;;;12.47;;
2305;SDS011;1161;51.922;8.896;2022-08-21T04:13:37;16.67;;;9.63;;
2305;SDS011;1161;51.922;8.896;2022-08-21T04:16:04;13.20;;;8.57;;
2305;SDS011;1161;51.922;8.896;2022-08-21T04:18:32;11.77;;;8.67;;
2305;SDS011;1161;51.922;8.896;2022-08-21T04:20:59;13.70;;;9.20;;
2305;SDS011;1161;51.922;8.896;2022-08-21T04:23:28;20.13;;;9.97;;
2305;SDS011;1161;51.922;8.896;2022-08-21T04:25:57;21.10;;;12.07;;
2305;SDS011;1161;51.922;8.896;2022-08-21T04:28:27;18.13;;;10.53;;
2305;SDS011;1161;51.922;8.896;2022-08-21T04:31:07;27.97;;;15.43;;
2305;SDS011;1161;51.922;8.896;2022-08-21T04:33:35;23.93;;;13.87;;
2305;SDS011;1161;51.922;8.896;2022-08-21T04:36:04;18.87;;;11.90;;
2305;SDS011;1161;51.922;8.896;2022-08-21T04:38:32;20.23;;;11.33;;
2305;SDS011;1161;51.922;8.896;2022-08-21T04:41:02;17.17;;;10.93;;
2305;SDS011;1161;51.922;8.896;2022-08-21T04:43:30;27.50;;;12.33;;
2305;SDS011;1161;51.922;8.896;2022-08-21T04:45:58;21.47;;;12.63;;
2305;SDS011;1161;51.922;8.896;2022-08-21T04:48:27;26.33;;;13.40;;
2305;SDS011;1161;51.922;8.896;2022-08-21T04:50:55;22.80;;;14.20;;
2305;SDS011;1161;51.922;8.896;2022-08-21T04:53:26;27.47;;;16.10;;
2305;SDS011;1161;51.922;8.896;2022-08-21T04:55:57;19.70;;;13.23;;
2305;SDS011;1161;51.922;8.896;2022-08-21T04:58:28;20.67;;;12.70;;
2305;SDS011;1161;51.922;8.896;2022-08-21T05:00:56;24.93;;;13.10;;
2305;SDS011;1161;51.922;8.896;2022-08-21T05:03:28;19.73;;;12.13;;
2305;SDS011;1161;51.922;8.896;2022-08-21T05:05:56;22.87;;;12.93;;
2305;SDS011;1161;51.922;8.896;2022-08-21T05:08:23;16.70;;;12.27;;
2305;SDS011;1161;51.922;8.896;2022-08-21T05:10:53;19.60;;;13.47;;
2305;SDS011;1161;51.922;8.896;2022-08-21T05:13:22;22.73;;;11.13;;
2305;SDS011;1161;51.922;8.896;2022-08-21T05:15:51;18.83;;;10.47;;
2305;SDS011;1161;51.922;8.896;2022-08-21T05:18:18;28.43;;;13.20;;
2305;SDS011;1161;51.922;8.896;2022-08-21T05:20:46;18.60;;;11.60;;
2305;SDS011;1161;51.922;8.896;2022-08-21T05:23:14;24.00;;;12.20;;
2305;SDS011;1161;51.922;8.896;2022-08-21T05:25:43;23.83;;;11.93;;
2305;SDS011;1161;51.922;8.896;2022-08-21T05:28:10;20.10;;;12.70;;
2305;SDS011;1161;51.922;8.896;2022-08-21T05:30:38;22.00;;;12.83;;
2305;SDS011;1161;51.922;8.896;2022-08-21T05:33:06;19.90;;;13.57;;
2305;SDS011;1161;51.922;8.896;2022-08-21T05:35:39;22.30;;;10.53;;
2305;SDS011;1161;51.922;8.896;2022-08-21T05:38:07;22.03;;;12.50;;
2305;SDS011;1161;51.922;8.896;2022-08-21T05:40:34;23.67;;;13.00;;
2305;SDS011;1161;51.922;8.896;2022-08-21T05:43:02;24.83;;;14.10;;
2305;SDS011;1161;51.922;8.896;2022-08-21T05:45:31;20.33;;;11.73;;
2305;SDS011;1161;51.922;8.896;2022-08-21T05:48:04;21.80;;;12.57;;
2305;SDS011;1161;51.922;8.896;2022-08-21T05:50:34;15.10;;;11.13;;
2305;SDS011;1161;51.922;8.896;2022-08-21T05:53:04;20.17;;;13.20;;
2305;SDS011;1161;51.922;8.896;2022-08-21T05:55:32;33.60;;;15.20;;
2305;SDS011;1161;51.922;8.896;2022-08-21T05:58:02;19.33;;;13.50;;
2305;SDS011;1161;51.922;8.896;2022-08-21T06:00:29;27.03;;;15.17;;
2305;SDS011;1161;51.922;8.896;2022-08-21T06:02:58;24.33;;;14.27;;
2305;SDS011;1161;51.922;8.896;2022-08-21T06:05:26;23.30;;;14.60;;
2305;SDS011;1161;51.922;8.896;2022-08-21T06:07:53;23.73;;;15.60;;
2305;SDS011;1161;51.922;8.896;2022-08-21T06:10:22;20.67;;;13.40;;
2305;SDS011;1161;51.922;8.896;2022-08-21T06:12:53;24.17;;;13.70;;
2305;SDS011;1161;51.922;8.896;2022-08-21T06:15:20;29.23;;;13.87;;
2305;SDS011;1161;51.922;8.896;2022-08-21T06:17:47;28.83;;;12.50;;
2305;SDS011;1161;51.922;8.896;2022-08-21T06:20:13;19.70;;;12.77;;
2305;SDS011;1161;51.922;8.896;2022-08-21T06:22:40;13.40;;;11.33;;
2305;SDS011;1161;51.922;8.896;2022-08-21T06:25:07;24.00;;;12.73;;
2305;SDS011;1161;51.922;8.896;2022-08-21T06:27:34;24.70;;;13.40;;
2305;SDS011;1161;51.922;8.896;2022-08-21T06:30:02;17.20;;;11.73;;
2305;SDS011;1161;51.922;8.896;2022-08-21T06:32:29;17.57;;;13.37;;
2305;SDS011;1161;51.922;8.896;2022-08-21T06:34:56;14.33;;;10.10;;
2305;SDS011;1161;51.922;8.896;2022-08-21T06:37:22;25.53;;;11.27;;
2305;SDS011;1161;51.922;8.896;2022-08-21T06:39:49;24.83;;;11.33;;
2305;SDS011;1161;51.922;8.896;2022-08-21T06:42:16;23.67;;;12.13;;
2305;SDS011;1161;51.922;8.896;2022-08-21T06:44:43;13.47;;;10.20;;
2305;SDS011;1161;51.922;8.896;2022-08-21T06:47:12;15.20;;;9.13;;
2305;SDS011;1161;51.922;8.896;2022-08-21T06:49:38;16.53;;;9.77;;
2305;SDS011;1161;51.922;8.896;2022-08-21T06:52:08;15.50;;;8.37;;
2305;SDS011;1161;51.922;8.896;2022-08-21T06:54:35;17.57;;;8.63;;
2305;SDS011;1161;51.922;8.896;2022-08-21T06:57:02;13.40;;;8.17;;
2305;SDS011;1161;51.922;8.896;2022-08-21T06:59:29;16.23;;;7.90;;
2305;SDS011;1161;51.922;8.896;2022-08-21T07:01:56;22.83;;;8.40;;
2305;SDS011;1161;51.922;8.896;2022-08-21T07:04:24;14.93;;;8.30;;
2305;SDS011;1161;51.922;8.896;2022-08-21T07:06:51;14.83;;;7.50;;
2305;SDS011;1161;51.922;8.896;2022-08-21T07:09:18;8.40;;;7.37;;
2305;SDS011;1161;51.922;8.896;2022-08-21T07:11:44;27.03;;;7.40;;
2305;SDS011;1161;51.922;8.896;2022-08-21T07:14:14;18.27;;;6.90;;
2305;SDS011;1161;51.922;8.896;2022-08-21T07:16:41;15.30;;;6.07;;
2305;SDS011;1161;51.922;8.896;2022-08-21T07:19:07;6.53;;;5.50;;
2305;SDS011;1161;51.922;8.896;2022-08-21T07:21:35;12.20;;;6.13;;
2305;SDS011;1161;51.922;8.896;2022-08-21T07:24:02;8.07;;;5.80;;
2305;SDS011;1161;51.922;8.896;2022-08-21T07:26:29;10.57;;;5.20;;
2305;SDS011;1161;51.922;8.896;2022-08-21T07:28:56;7.47;;;5.00;;
2305;SDS011;1161;51.922;8.896;2022-08-21T07:31:23;16.50;;;3.90;;
2305;SDS011;1161;51.922;8.896;2022-08-21T07:33:51;7.87;;;4.13;;
2305;SDS011;1161;51.922;8.896;2022-08-21T07:36:18;17.23;;;5.83;;
2305;SDS011;1161;51.922;8.896;2022-08-21T07:38:46;20.63;;;5.73;;
2305;SDS011;1161;51.922;8.896;2022-08-21T07:41:14;11.00;;;5.37;;
2305;SDS011;1161;51.922;8.896;2022-08-21T07:43:42;9.00;;;3.67;;
2305;SDS011;1161;51.922;8.896;2022-08-21T07:46:10;13.83;;;4.17;;
2305;SDS011;1161;51.922;8.896;2022-08-21T07:48:37;6.17;;;3.37;;
2305;SDS011;1161;51.922;8.896;2022-08-21T07:51:05;8.80;;;2.57;;
2305;SDS011;1161;51.922;8.896;2022-08-21T07:53:33;4.07;;;2.60;;
2305;SDS011;1161;51.922;8.896;2022-08-21T07:56:02;5.80;;;2.83;;
2305;SDS011;1161;51.922;8.896;2022-08-21T07:58:29;9.93;;;3.57;;
2305;SDS011;1161;51.922;8.896;2022-08-21T08:00:56;5.63;;;3.00;;
2305;SDS011;1161;51.922;8.896;2022-08-21T08:03:24;12.23;;;3.37;;
2305;SDS011;1161;51.922;8.896;2022-08-21T08:05:50;7.50;;;3.00;;
2305;SDS011;1161;51.922;8.896;2022-08-21T08:08:17;13.63;;;3.27;;
2305;SDS011;1161;51.922;8.896;2022-08-21T08:10:44;4.77;;;2.67;;
2305;SDS011;1161;51.922;8.896;2022-08-21T08:13:13;17.37;;;3.70;;
2305;SDS011;1161;51.922;8.896;2022-08-21T08:15:39;12.93;;;4.13;;
2305;SDS011;1161;51.922;8.896;2022-08-21T08:18:06;7.53;;;2.80;;
2305;SDS011;1161;51.922;8.896;2022-08-21T08:20:33;6.30;;;3.43;;
2305;SDS011;1161;51.922;8.896;2022-08-21T08:22:59;5.57;;;2.33;;
2305;SDS011;1161;51.922;8.896;2022-08-21T08:25:26;6.53;;;3.27;;
2305;SDS011;1161;51.922;8.896;2022-08-21T08:27:53;4.73;;;2.60;;
2305;SDS011;1161;51.922;8.896;2022-08-21T08:30:21;10.70;;;3.63;;
2305;SDS011;1161;51.922;8.896;2022-08-21T08:32:49;5.13;;;2.40;;
2305;SDS011;1161;51.922;8.896;2022-08-21T08:35:16;12.83;;;3.20;;
2305;SDS011;1161;51.922;8.896;2022-08-21T08:37:43;16.93;;;2.57;;
2305;SDS011;1161;51.922;8.896;2022-08-21T08:40:11;11.57;;;3.17;;
2305;SDS011;1161;51.922;8.896;2022-08-21T08:42:39;5.10;;;2.23;;
2305;SDS011;1161;51.922;8.896;2022-08-21T08:45:07;10.10;;;2.93;;
2305;SDS011;1161;51.922;8.896;2022-08-21T08:47:38;4.40;;;1.73;;
2305;SDS011;1161;51.922;8.896;2022-08-21T08:50:07;5.53;;;2.30;;
2305;SDS011;1161;51.922;8.896;2022-08-21T08:52:40;6.00;;;2.50;;
2305;SDS011;1161;51.922;8.896;2022-08-21T08:55:11;11.53;;;3.50;;
2305;SDS011;1161;51.922;8.896;2022-08-21T08:57:42;10.80;;;3.47;;
2305;SDS011;1161;51.922;8.896;2022-08-21T09:00:12;10.73;;;3.67;;
2305;SDS011;1161;51.922;8.896;2022-08-21T09:02:43;3.80;;;3.00;;
2305;SDS011;1161;51.922;8.896;2022-08-21T09:05:16;5.73;;;3.13;;
2305;SDS011;1161;51.922;8.896;2022-08-21T09:07:47;7.63;;;2.50;;
2305;SDS011;1161;51.922;8.896;2022-08-21T09:10:19;8.30;;;2.93;;
2305;SDS011;1161;51.922;8.896;2022-08-21T09:12:52;9.57;;;2.53;;
2305;SDS011;1161;51.922;8.896;2022-08-21T09:15:25;12.90;;;4.43;;
2305;SDS011;1161;51.922;8.896;2022-08-21T09:20:47;5.40;;;2.80;;
2305;SDS011;1161;51.922;8.896;2022-08-21T09:23:23;5.17;;;2.97;;
2305;SDS011;1161;51.922;8.896;2022-08-21T09:25:56;9.03;;;3.23;;
2305;SDS011;1161;51.922;8.896;2022-08-21T09:28:26;10.43;;;4.03;;
2305;SDS011;1161;51.922;8.896;2022-08-21T09:30:54;12.13;;;3.37;;
2305;SDS011;1161;51.922;8.896;2022-08-21T09:33:22;10.63;;;3.70;;
2305;SDS011;1161;51.922;8.896;2022-08-21T09:35:50;10.97;;;2.70;;
2305;SDS011;1161;51.922;8.896;2022-08-21T09:38:24;6.73;;;3.13;;
2305;SDS011;1161;51.922;8.896;2022-08-21T09:40:56;9.50;;;3.43;;
2305;SDS011;1161;51.922;8.896;2022-08-21T09:43:25;10.27;;;3.40;;
2305;SDS011;1161;51.922;8.896;2022-08-21T09:46:01;3.00;;;2.43;;
2305;SDS011;1161;51.922;8.896;2022-08-21T09:48:37;5.60;;;2.70;;
2305;SDS011;1161;51.922;8.896;2022-08-21T09:51:10;12.47;;;3.77;;
2305;SDS011;1161;51.922;8.896;2022-08-21T09:53:40;4.83;;;3.77;;
2305;SDS011;1161;51.922;8.896;2022-08-21T09:56:17;4.40;;;3.50;;
2305;SDS011;1161;51.922;8.896;2022-08-21T09:59:12;6.83;;;2.80;;
2305;SDS011;1161;51.922;8.896;2022-08-21T10:01:42;9.10;;;3.73;;
2305;SDS011;1161;51.922;8.896;2022-08-21T10:04:11;8.37;;;3.50;;
2305;SDS011;1161;51.922;8.896;2022-08-21T10:06:38;4.90;;;3.37;;
2305;SDS011;1161;51.922;8.896;2022-08-21T10:09:06;8.90;;;3.80;;
2305;SDS011;1161;51.922;8.896;2022-08-21T10:11:35;5.20;;;2.77;;
2305;SDS011;1161;51.922;8.896;2022-08-21T10:14:05;3.47;;;3.20;;
2305;SDS011;1161;51.922;8.896;2022-08-21T10:16:40;13.80;;;3.67;;
2305;SDS011;1161;51.922;8.896;2022-08-21T10:19:24;17.53;;;4.63;;
2305;SDS011;1161;51.922;8.896;2022-08-21T10:21:58;6.73;;;3.13;;
2305;SDS011;1161;51.922;8.896;2022-08-21T10:24:29;9.40;;;3.43;;
2305;SDS011;1161;51.922;8.896;2022-08-21T10:27:02;11.13;;;4.17;;
2305;SDS011;1161;51.922;8.896;2022-08-21T10:29:38;8.40;;;3.90;;
2305;SDS011;1161;51.922;8.896;2022-08-21T10:32:12;12.80;;;3.93;;
2305;SDS011;1161;51.922;8.896;2022-08-21T10:34:47;14.87;;;3.73;;
2305;SDS011;1161;51.922;8.896;2022-08-21T10:37:18;8.30;;;2.40;;
2305;SDS011;1161;51.922;8.896;2022-08-21T10:39:52;7.00;;;3.17;;
2305;SDS011;1161;51.922;8.896;2022-08-21T10:42:28;6.80;;;3.67;;
2305;SDS011;1161;51.922;8.896;2022-08-21T10:45:02;7.60;;;3.60;;
2305;SDS011;1161;51.922;8.896;2022-08-21T10:47:37;8.33;;;3.97;;
2305;SDS011;1161;51.922;8.896;2022-08-21T10:50:10;8.53;;;4.17;;
2305;SDS011;1161;51.922;8.896;2022-08-21T10:52:52;6.17;;;3.57;;
2305;SDS011;1161;51.922;8.896;2022-08-21T10:55:37;13.63;;;5.13;;
2305;SDS011;1161;51.922;8.896;2022-08-21T10:58:08;7.70;;;3.23;;
2305;SDS011;1161;51.922;8.896;2022-08-21T11:00:39;8.23;;;3.00;;
2305;SDS011;1161;51.922;8.896;2022-08-21T11:03:09;11.37;;;3.63;;
2305;SDS011;1161;51.922;8.896;2022-08-21T11:05:40;12.50;;;3.20;;
2305;SDS011;1161;51.922;8.896;2022-08-21T11:08:09;5.67;;;3.00;;
2305;SDS011;1161;51.922;8.896;2022-08-21T11:10:39;3.23;;;3.03;;
2305;SDS011;1161;51.922;8.896;2022-08-21T11:13:12;4.67;;;2.80;;
2305;SDS011;1161;51.922;8.896;2022-08-21T11:15:44;8.37;;;3.50;;
2305;SDS011;1161;51.922;8.896;2022-08-21T11:18:17;12.43;;;4.63;;
2305;SDS011;1161;51.922;8.896;2022-08-21T11:20:50;9.63;;;3.60;;
2305;SDS011;1161;51.922;8.896;2022-08-21T11:23:23;8.80;;;3.33;;
2305;SDS011;1161;51.922;8.896;2022-08-21T11:25:53;6.30;;;3.47;;
2305;SDS011;1161;51.922;8.896;2022-08-21T11:28:23;5.53;;;4.00;;
2305;SDS011;1161;51.922;8.896;2022-08-21T11:30:56;5.50;;;3.20;;
2305;SDS011;1161;51.922;8.896;2022-08-21T11:33:34;6.13;;;4.10;;
2305;SDS011;1161;51.922;8.896;2022-08-21T11:36:10;15.97;;;3.67;;
2305;SDS011;1161;51.922;8.896;2022-08-21T11:38:42;5.97;;;3.60;;
2305;SDS011;1161;51.922;8.896;2022-08-21T11:41:17;10.20;;;3.53;;
2305;SDS011;1161;51.922;8.896;2022-08-21T11:43:50;6.00;;;3.60;;
2305;SDS011;1161;51.922;8.896;2022-08-21T11:46:24;4.97;;;4.50;;
2305;SDS011;1161;51.922;8.896;2022-08-21T11:49:00;4.07;;;3.40;;
2305;SDS011;1161;51.922;8.896;2022-08-21T11:51:41;5.97;;;3.47;;
2305;SDS011;1161;51.922;8.896;2022-08-21T11:54:12;5.67;;;3.70;;
2305;SDS011;1161;51.922;8.896;2022-08-21T11:56:45;7.70;;;3.70;;
2305;SDS011;1161;51.922;8.896;2022-08-21T11:59:16;12.07;;;3.70;;
2305;SDS011;1161;51.922;8.896;2022-08-21T12:01:48;3.10;;;2.90;;
2305;SDS011;1161;51.922;8.896;2022-08-21T12:04:18;3.53;;;3.23;;
2305;SDS011;1161;51.922;8.896;2022-08-21T12:06:52;2.80;;;2.60;;
2305;SDS011;1161;51.922;8.896;2022-08-21T12:09:30;7.23;;;3.33;;
2305;SDS011;1161;51.922;8.896;2022-08-21T12:12:01;4.40;;;2.60;;
2305;SDS011;1161;51.922;8.896;2022-08-21T12:14:35;3.73;;;3.40;;
2305;SDS011;1161;51.922;8.896;2022-08-21T12:17:04;11.07;;;3.20;;
2305;SDS011;1161;51.922;8.896;2022-08-21T12:19:32;5.83;;;3.00;;
2305;SDS011;1161;51.922;8.896;2022-08-21T12:22:08;6.10;;;3.23;;
2305;SDS011;1161;51.922;8.896;2022-08-21T12:24:37;6.67;;;3.03;;
2305;SDS011;1161;51.922;8.896;2022-08-21T12:27:13;8.23;;;3.10;;
2305;SDS011;1161;51.922;8.896;2022-08-21T12:29:48;6.73;;;2.60;;
2305;SDS011;1161;51.922;8.896;2022-08-21T12:32:22;5.00;;;3.17;;
2305;SDS011;1161;51.922;8.896;2022-08-21T12:34:51;5.03;;;2.43;;
2305;SDS011;1161;51.922;8.896;2022-08-21T12:37:22;13.70;;;3.20;;
2305;SDS011;1161;51.922;8.896;2022-08-21T12:39:51;9.00;;;3.03;;
2305;SDS011;1161;51.922;8.896;2022-08-21T12:42:20;4.87;;;2.73;;
2305;SDS011;1161;51.922;8.896;2022-08-21T12:44:48;3.10;;;2.50;;
2305;SDS011;1161;51.922;8.896;2022-08-21T12:47:21;3.27;;;2.60;;
2305;SDS011;1161;51.922;8.896;2022-08-21T12:49:53;2.90;;;2.70;;
2305;SDS011;1161;51.922;8.896;2022-08-21T12:52:24;6.40;;;2.77;;
2305;SDS011;1161;51.922;8.896;2022-08-21T12:54:55;8.30;;;3.37;;
2305;SDS011;1161;51.922;8.896;2022-08-21T12:57:23;3.90;;;2.67;;
2305;SDS011;1161;51.922;8.896;2022-08-21T12:59:55;4.40;;;2.30;;
2305;SDS011;1161;51.922;8.896;2022-08-21T13:02:25;10.10;;;3.10;;
2305;SDS011;1161;51.922;8.896;2022-08-21T13:04:55;3.97;;;3.60;;
2305;SDS011;1161;51.922;8.896;2022-08-21T13:07:25;9.53;;;3.13;;
2305;SDS011;1161;51.922;8.896;2022-08-21T13:09:54;3.90;;;3.13;;
2305;SDS011;1161;51.922;8.896;2022-08-21T13:12:23;2.83;;;2.57;;
2305;SDS011;1161;51.922;8.896;2022-08-21T13:14:51;7.07;;;3.13;;
2305;SDS011;1161;51.922;8.896;2022-08-21T13:17:19;11.23;;;3.53;;
2305;SDS011;1161;51.922;8.896;2022-08-21T13:19:57;3.47;;;3.17;;
2305;SDS011;1161;51.922;8.896;2022-08-21T13:22:26;6.70;;;2.50;;
2305;SDS011;1161;51.922;8.896;2022-08-21T13:24:54;5.13;;;3.13;;
2305;SDS011;1161;51.922;8.896;2022-08-21T13:27:24;2.90;;;2.70;;
2305;SDS011;1161;51.922;8.896;2022-08-21T13:30:00;4.83;;;3.77;;
2305;SDS011;1161;51.922;8.896;2022-08-21T13:32:29;7.07;;;3.17;;
2305;SDS011;1161;51.922;8.896;2022-08-21T13:34:58;3.30;;;3.00;;
2305;SDS011;1161;51.922;8.896;2022-08-21T13:37:26;5.97;;;3.17;;
2305;SDS011;1161;51.922;8.896;2022-08-21T13:39:54;5.33;;;3.07;;
2305;SDS011;1161;51.922;8.896;2022-08-21T13:42:20;5.87;;;3.20;;
2305;SDS011;1161;51.922;8.896;2022-08-21T13:44:50;8.67;;;3.60;;
2305;SDS011;1161;51.922;8.896;2022-08-21T13:47:18;13.47;;;3.50;;
2305;SDS011;1161;51.922;8.896;2022-08-21T13:49:46;4.70;;;3.63;;
2305;SDS011;1161;51.922;8.896;2022-08-21T13:52:14;6.63;;;3.20;;
2305;SDS011;1161;51.922;8.896;2022-08-21T13:54:43;6.77;;;3.67;;
2305;SDS011;1161;51.922;8.896;2022-08-21T13:57:16;4.03;;;3.63;;
2305;SDS011;1161;51.922;8.896;2022-08-21T13:59:43;8.07;;;4.80;;
2305;SDS011;1161;51.922;8.896;2022-08-21T14:02:11;4.33;;;2.97;;
2305;SDS011;1161;51.922;8.896;2022-08-21T14:04:42;4.67;;;3.60;;
2305;SDS011;1161;51.922;8.896;2022-08-21T14:07:15;8.53;;;3.07;;
2305;SDS011;1161;51.922;8.896;2022-08-21T14:09:45;7.53;;;3.27;;
2305;SDS011;1161;51.922;8.896;2022-08-21T14:12:13;5.97;;;3.17;;
2305;SDS011;1161;51.922;8.896;2022-08-21T14:14:42;4.03;;;2.73;;
2305;SDS011;1161;51.922;8.896;2022-08-21T14:17:10;3.27;;;2.93;;
2305;SDS011;1161;51.922;8.896;2022-08-21T14:19:40;6.47;;;2.10;;
2305;SDS011;1161;51.922;8.896;2022-08-21T14:22:28;2.53;;;2.10;;
2305;SDS011;1161;51.922;8.896;2022-08-21T14:25:03;1.87;;;1.67;;
2305;SDS011;1161;51.922;8.896;2022-08-21T14:27:31;7.17;;;2.00;;
2305;SDS011;1161;51.922;8.896;2022-08-21T14:29:59;1.57;;;1.47;;
2305;SDS011;1161;51.922;8.896;2022-08-21T14:32:28;5.90;;;1.63;;
2305;SDS011;1161;51.922;8.896;2022-08-21T14:34:56;2.10;;;1.60;;
2305;SDS011;1161;51.922;8.896;2022-08-21T14:37:23;4.60;;;1.77;;
2305;SDS011;1161;51.922;8.896;2022-08-21T14:39:50;3.37;;;1.70;;
2305;SDS011;1161;51.922;8.896;2022-08-21T14:42:18;1.60;;;1.50;;
2305;SDS011;1161;51.922;8.896;2022-08-21T14:44:45;5.20;;;1.60;;
2305;SDS011;1161;51.922;8.896;2022-08-21T14:47:12;2.40;;;2.20;;
2305;SDS011;1161;51.922;8.896;2022-08-21T14:49:39;2.70;;;1.40;;
2305;SDS011;1161;51.922;8.896;2022-08-21T14:52:05;3.20;;;1.90;;
2305;SDS011;1161;51.922;8.896;2022-08-21T14:54:32;5.10;;;1.60;;
2305;SDS011;1161;51.922;8.896;2022-08-21T14:57:01;1.70;;;1.60;;
2305;SDS011;1161;51.922;8.896;2022-08-21T14:59:32;4.37;;;1.40;;
2305;SDS011;1161;51.922;8.896;2022-08-21T15:01:59;2.90;;;1.40;;
2305;SDS011;1161;51.922;8.896;2022-08-21T15:04:26;5.00;;;1.60;;
2305;SDS011;1161;51.922;8.896;2022-08-21T15:06:53;4.37;;;1.90;;
2305;SDS011;1161;51.922;8.896;2022-08-21T15:09:19;3.70;;;1.70;;
2305;SDS011;1161;51.922;8.896;2022-08-21T15:11:46;3.40;;;1.83;;
2305;SDS011;1161;51.922;8.896;2022-08-21T15:14:14;5.23;;;2.20;;
2305;SDS011;1161;51.922;8.896;2022-08-21T15:16:47;6.13;;;2.10;;
2305;SDS011;1161;51.922;8.896;2022-08-21T15:19:14;2.97;;;2.13;;
2305;SDS011;1161;51.922;8.896;2022-08-21T15:21:41;2.87;;;2.23;;